createdAt,value
2022-11-26T00:00:29.526Z,10.67
2022-11-26T00:02:56.385Z,8.60
2022-11-26T00:05:23.507Z,9.70
2022-11-26T00:07:56.198Z,9.17
2022-11-26T00:10:25.739Z,9.40
2022-11-26T00:12:52.910Z,12.57
2022-11-26T00:15:25.271Z,8.47
2022-11-26T00:17:53.174Z,8.13
2022-11-26T00:20:27.943Z,7.97
2022-11-26T00:22:56.917Z,10.33
2022-11-26T00:25:27.297Z,7.37
2022-11-26T00:27:55.905Z,7.17
2022-11-26T00:30:25.385Z,8.80
2022-11-26T00:32:53.523Z,6.80
2022-11-26T00:35:21.167Z,12.43
2022-11-26T00:37:51.220Z,9.33
2022-11-26T00:40:22.501Z,8.80
2022-11-26T00:42:50.214Z,8.20
2022-11-26T00:45:24.913Z,10.30
2022-11-26T00:47:52.090Z,8.13
2022-11-26T00:50:24.339Z,8.97
2022-11-26T00:52:54.375Z,9.07
2022-11-26T00:55:37.180Z,9.13
2022-11-26T00:58:05.250Z,8.47
2022-11-26T01:00:34.578Z,7.27
2022-11-26T01:03:01.958Z,7.80
2022-11-26T01:05:30.727Z,11.27
2022-11-26T01:08:06.534Z,6.77
2022-11-26T01:10:33.098Z,6.13
2022-11-26T01:12:59.648Z,6.03
2022-11-26T01:15:27.030Z,5.57
2022-11-26T01:17:53.895Z,6.57
2022-11-26T01:20:30.944Z,5.00
2022-11-26T01:22:59.004Z,9.23
2022-11-26T01:25:27.068Z,8.17
2022-11-26T01:27:54.272Z,8.37
2022-11-26T01:30:29.577Z,10.50
2022-11-26T01:32:56.261Z,8.33
2022-11-26T01:35:23.378Z,8.53
2022-11-26T01:37:50.079Z,6.17
2022-11-26T01:40:31.336Z,5.43
2022-11-26T01:43:12.125Z,6.83
2022-11-26T01:45:38.833Z,5.83
2022-11-26T01:48:23.811Z,8.13
2022-11-26T01:50:53.278Z,7.33
2022-11-26T01:53:29.006Z,7.50
2022-11-26T01:56:02.633Z,5.77
2022-11-26T01:58:40.493Z,7.80
2022-11-26T02:01:07.396Z,8.53
2022-11-26T02:03:50.272Z,6.40
2022-11-26T02:06:20.927Z,7.07
2022-11-26T02:08:47.765Z,7.27
2022-11-26T02:11:21.585Z,7.30
2022-11-26T02:13:51.917Z,4.87
2022-11-26T02:16:31.605Z,9.33
2022-11-26T02:19:20.870Z,6.93
2022-11-26T02:21:56.317Z,7.50
2022-11-26T02:24:40.895Z,8.17
2022-11-26T02:27:30.881Z,5.60
2022-11-26T02:30:06.306Z,6.60
2022-11-26T02:33:02.600Z,8.37
2022-11-26T02:35:45.973Z,7.07
2022-11-26T02:38:19.466Z,7.07
2022-11-26T02:40:46.229Z,6.13
2022-11-26T02:43:15.941Z,7.30
2022-11-26T02:45:55.908Z,7.13
2022-11-26T02:48:27.253Z,8.47
2022-11-26T02:51:04.578Z,7.23
2022-11-26T02:53:33.706Z,6.30
2022-11-26T02:56:07.374Z,5.90
2022-11-26T02:58:34.920Z,7.90
2022-11-26T03:01:07.329Z,6.63
2022-11-26T03:03:39.188Z,7.10
2022-11-26T03:06:09.614Z,6.73
2022-11-26T03:08:36.884Z,7.00
2022-11-26T03:11:04.077Z,7.00
2022-11-26T03:13:30.906Z,5.73
2022-11-26T03:15:57.697Z,8.43
2022-11-26T03:18:24.474Z,9.50
2022-11-26T03:20:52.487Z,5.93
2022-11-26T03:23:19.307Z,7.40
2022-11-26T03:25:45.991Z,6.80
2022-11-26T03:28:12.584Z,6.30
2022-11-26T03:30:39.151Z,5.60
2022-11-26T03:33:05.709Z,9.00
2022-11-26T03:35:32.293Z,5.60
2022-11-26T03:37:58.850Z,7.97
2022-11-26T03:40:25.529Z,6.00
2022-11-26T03:42:52.099Z,7.33
2022-11-26T03:45:18.937Z,4.50
2022-11-26T03:47:45.470Z,5.30
2022-11-26T03:50:12.384Z,5.90
2022-11-26T03:52:38.961Z,5.10
2022-11-26T03:55:05.960Z,6.80
2022-11-26T03:57:32.541Z,7.77
2022-11-26T03:59:59.111Z,5.73
2022-11-26T04:02:25.677Z,7.83
2022-11-26T04:04:52.325Z,4.83
2022-11-26T04:07:19.007Z,7.10
2022-11-26T04:09:45.582Z,6.37
2022-11-26T04:12:12.125Z,5.53
2022-11-26T04:14:38.998Z,6.13
2022-11-26T04:17:05.755Z,6.73
2022-11-26T04:19:32.316Z,7.27
2022-11-26T04:21:58.876Z,5.50
2022-11-26T04:24:25.472Z,4.97
2022-11-26T04:26:52.116Z,6.93
2022-11-26T04:29:18.709Z,5.43
2022-11-26T04:31:45.542Z,6.63
2022-11-26T04:34:12.199Z,5.67
2022-11-26T04:36:39.574Z,6.37
2022-11-26T04:39:06.243Z,8.33
2022-11-26T04:41:32.802Z,6.83
2022-11-26T04:43:59.375Z,5.57
2022-11-26T04:46:25.938Z,6.77
2022-11-26T04:48:52.487Z,7.90
2022-11-26T04:51:19.144Z,7.40
2022-11-26T04:53:45.686Z,7.10
2022-11-26T04:56:12.284Z,7.40
2022-11-26T04:58:38.832Z,9.37
2022-11-26T05:01:05.750Z,7.47
2022-11-26T05:03:32.389Z,7.53
2022-11-26T05:05:59.004Z,10.47
2022-11-26T05:08:25.557Z,7.23
2022-11-26T05:10:56.193Z,8.80
2022-11-26T05:13:22.833Z,12.07
2022-11-26T05:15:49.599Z,10.30
2022-11-26T05:18:16.426Z,12.03
2022-11-26T05:20:42.996Z,12.27
2022-11-26T05:23:09.902Z,8.97
2022-11-26T05:25:36.754Z,8.77
2022-11-26T05:28:03.529Z,9.83
2022-11-26T05:30:30.250Z,12.93
2022-11-26T05:32:56.809Z,13.73
2022-11-26T05:35:23.462Z,11.07
2022-11-26T05:37:50.027Z,8.53
2022-11-26T05:40:16.730Z,11.80
2022-11-26T05:42:43.555Z,13.03
2022-11-26T05:45:10.446Z,10.70
2022-11-26T05:47:37.036Z,10.43
2022-11-26T05:50:04.299Z,12.60
2022-11-26T05:52:30.981Z,13.83
2022-11-26T05:54:57.546Z,17.83
2022-11-26T05:57:24.084Z,13.37
2022-11-26T05:59:50.789Z,14.43
2022-11-26T06:02:17.578Z,16.60
2022-11-26T06:04:44.599Z,14.53
2022-11-26T06:07:11.209Z,11.23
2022-11-26T06:09:38.051Z,12.90
2022-11-26T06:12:05.226Z,13.03
2022-11-26T06:14:31.848Z,15.30
2022-11-26T06:16:58.472Z,18.80
2022-11-26T06:19:25.239Z,13.27
2022-11-26T06:21:51.768Z,13.53
2022-11-26T06:24:18.305Z,10.73
2022-11-26T06:26:44.877Z,15.07
2022-11-26T06:29:11.515Z,12.60
2022-11-26T06:31:38.099Z,13.73
2022-11-26T06:34:04.710Z,15.47
2022-11-26T06:36:31.282Z,11.70
2022-11-26T06:39:00.750Z,11.47
2022-11-26T06:41:27.369Z,11.47
2022-11-26T06:43:53.949Z,13.40
2022-11-26T06:46:20.697Z,11.10
2022-11-26T06:48:47.314Z,10.70
2022-11-26T06:51:15.973Z,12.73
2022-11-26T06:53:42.629Z,13.10
2022-11-26T06:56:18.447Z,10.30
2022-11-26T06:58:46.948Z,10.77
2022-11-26T07:01:20.829Z,11.97
2022-11-26T07:03:47.748Z,9.47
2022-11-26T07:06:22.653Z,10.17
2022-11-26T07:08:50.007Z,8.10
2022-11-26T07:11:17.159Z,12.43
2022-11-26T07:13:43.948Z,9.00
2022-11-26T07:16:11.188Z,8.13
2022-11-26T07:18:38.113Z,8.60
2022-11-26T07:21:13.993Z,10.17
2022-11-26T07:23:41.261Z,9.07
2022-11-26T07:26:09.867Z,12.40
2022-11-26T07:28:37.057Z,15.60
2022-11-26T07:31:16.515Z,10.10
2022-11-26T07:33:44.858Z,9.10
2022-11-26T07:36:17.361Z,8.60
2022-11-26T07:38:44.278Z,8.57
2022-11-26T07:41:13.511Z,9.10
2022-11-26T07:43:41.898Z,8.90
2022-11-26T07:46:10.892Z,11.73
2022-11-26T07:48:39.899Z,9.20
2022-11-26T07:51:08.306Z,7.70
2022-11-26T07:53:36.011Z,8.27
2022-11-26T07:56:06.393Z,10.00
2022-11-26T07:58:33.222Z,6.97
2022-11-26T08:01:10.760Z,10.97
2022-11-26T08:03:41.924Z,8.47
2022-11-26T08:06:10.681Z,10.37
2022-11-26T08:08:37.348Z,9.93
2022-11-26T08:11:05.717Z,9.20
2022-11-26T08:13:32.273Z,8.40
2022-11-26T08:15:58.870Z,9.13
2022-11-26T08:18:25.528Z,8.93
2022-11-26T08:20:56.294Z,11.50
2022-11-26T08:23:24.181Z,10.03
2022-11-26T08:26:20.615Z,7.03
2022-11-26T08:28:38.361Z,13.97
2022-11-26T08:31:08.087Z,10.03
2022-11-26T08:33:35.049Z,8.03
2022-11-26T08:36:08.994Z,10.53
2022-11-26T08:38:36.327Z,11.43
2022-11-26T08:41:05.224Z,9.17
2022-11-26T08:43:58.701Z,9.77
2022-11-26T08:46:18.628Z,11.20
2022-11-26T08:48:45.445Z,9.90
2022-11-26T08:51:12.961Z,9.93
2022-11-26T08:53:39.821Z,15.23
2022-11-26T08:56:12.313Z,10.87
2022-11-26T08:58:41.708Z,9.17
2022-11-26T09:01:10.684Z,12.80
2022-11-26T09:03:37.927Z,9.87
2022-11-26T09:06:06.028Z,8.93
2022-11-26T09:08:34.736Z,9.27
2022-11-26T09:11:01.289Z,9.37
2022-11-26T09:13:29.907Z,8.53
2022-11-26T09:15:56.507Z,8.40
2022-11-26T09:18:23.036Z,9.20
2022-11-26T09:20:52.906Z,8.57
2022-11-26T09:23:23.485Z,9.57
2022-11-26T09:25:50.688Z,9.50
2022-11-26T09:28:17.265Z,8.90
2022-11-26T09:30:43.802Z,11.57
2022-11-26T09:33:10.348Z,10.43
2022-11-26T09:35:36.933Z,10.97
2022-11-26T09:38:03.494Z,11.07
2022-11-26T09:40:45.732Z,9.40
2022-11-26T09:43:37.861Z,8.07
2022-11-26T09:46:05.611Z,7.43
2022-11-26T09:48:34.078Z,8.47
2022-11-26T09:51:07.950Z,7.77
2022-11-26T09:53:40.234Z,10.10
2022-11-26T09:56:13.260Z,10.63
2022-11-26T09:58:48.367Z,10.67
2022-11-26T10:01:20.510Z,9.13
2022-11-26T10:03:47.629Z,8.07
2022-11-26T10:06:30.693Z,8.67
2022-11-26T10:09:03.260Z,10.20
2022-11-26T10:11:41.952Z,9.87
2022-11-26T10:14:45.739Z,9.30
2022-11-26T10:17:30.864Z,9.87
2022-11-26T10:20:32.815Z,8.03
2022-11-26T10:23:33.454Z,6.73
2022-11-26T10:26:23.555Z,10.63
2022-11-26T10:28:59.625Z,13.00
2022-11-26T10:31:31.642Z,9.10
2022-11-26T10:34:02.204Z,7.40
2022-11-26T10:36:41.581Z,9.90
2022-11-26T10:39:13.671Z,11.73
2022-11-26T10:41:40.291Z,11.43
2022-11-26T10:44:37.483Z,13.80
2022-11-26T10:47:24.003Z,10.03
2022-11-26T10:49:52.552Z,10.90
2022-11-26T10:52:24.730Z,7.13
2022-11-26T10:55:27.600Z,9.70
2022-11-26T10:58:07.702Z,11.33
2022-11-26T11:00:38.909Z,9.47
2022-11-26T11:03:38.207Z,10.73
2022-11-26T11:06:21.437Z,8.50
2022-11-26T11:08:52.501Z,8.83
2022-11-26T11:11:25.467Z,8.63
2022-11-26T11:13:52.915Z,8.97
2022-11-26T11:16:27.469Z,11.30
2022-11-26T11:18:59.533Z,9.83
2022-11-26T11:21:33.787Z,8.70
2022-11-26T11:24:23.984Z,9.40
2022-11-26T11:26:55.877Z,8.93
2022-11-26T11:29:28.143Z,10.90
2022-11-26T11:31:56.487Z,9.50
2022-11-26T11:34:29.621Z,8.83
2022-11-26T11:37:05.021Z,11.67
2022-11-26T11:39:35.615Z,12.20
2022-11-26T11:42:07.217Z,10.57
2022-11-26T11:44:54.661Z,7.40
2022-11-26T11:47:44.365Z,9.77
2022-11-26T11:50:58.950Z,7.33
2022-11-26T11:54:01.905Z,10.20
2022-11-26T11:56:41.677Z,9.90
2022-11-26T11:59:47.542Z,9.33
2022-11-26T12:02:27.146Z,10.57
2022-11-26T12:05:06.374Z,10.67
2022-11-26T12:07:39.664Z,9.83
2022-11-26T12:10:13.548Z,9.80
2022-11-26T12:12:50.750Z,12.53
2022-11-26T12:16:03.852Z,7.20
2022-11-26T12:18:51.522Z,8.50
2022-11-26T12:21:29.163Z,8.77
2022-11-26T12:24:07.098Z,9.63
2022-11-26T12:26:49.432Z,10.93
2022-11-26T12:29:31.919Z,7.20
2022-11-26T12:32:05.260Z,9.23
2022-11-26T12:34:36.003Z,8.70
2022-11-26T12:37:07.016Z,10.60
2022-11-26T12:39:36.624Z,10.17
2022-11-26T12:42:14.703Z,8.73
2022-11-26T12:44:44.122Z,11.27
2022-11-26T12:47:37.093Z,9.00
2022-11-26T12:50:22.918Z,10.27
2022-11-26T12:53:01.381Z,10.00
2022-11-26T12:55:40.059Z,8.37
2022-11-26T12:58:09.648Z,7.93
2022-11-26T13:00:36.697Z,6.80
2022-11-26T13:03:06.572Z,7.60
2022-11-26T13:05:52.004Z,9.30
2022-11-26T13:08:21.335Z,9.20
2022-11-26T13:11:12.725Z,7.37
2022-11-26T13:14:14.445Z,9.73
2022-11-26T13:17:05.765Z,6.90
2022-11-26T13:19:44.958Z,6.60
2022-11-26T13:22:53.804Z,8.93
2022-11-26T13:25:40.749Z,7.33
2022-11-26T13:28:35.770Z,8.40
2022-11-26T13:31:40.020Z,8.63
2022-11-26T13:34:24.939Z,9.33
2022-11-26T13:37:00.849Z,11.60
2022-11-26T13:39:59.841Z,8.87
2022-11-26T13:42:43.782Z,10.63
2022-11-26T13:45:34.509Z,6.80
2022-11-26T13:48:36.486Z,6.97
2022-11-26T13:51:26.361Z,8.83
2022-11-26T13:54:05.505Z,12.27
2022-11-26T13:56:34.398Z,9.93
2022-11-26T13:59:28.005Z,8.80
2022-11-26T14:01:55.451Z,8.70
2022-11-26T14:04:24.771Z,8.03
2022-11-26T14:07:06.517Z,7.13
2022-11-26T14:09:44.904Z,9.07
2022-11-26T14:12:15.822Z,7.93
2022-11-26T14:14:43.853Z,10.33
2022-11-26T14:17:12.570Z,9.07
2022-11-26T14:19:45.008Z,7.97
2022-11-26T14:22:11.505Z,11.20
2022-11-26T14:24:59.982Z,10.30
2022-11-26T14:27:31.012Z,8.47
2022-11-26T14:30:03.386Z,8.37
2022-11-26T14:32:36.184Z,8.63
2022-11-26T14:35:02.977Z,7.37
2022-11-26T14:37:31.069Z,9.23
2022-11-26T14:40:19.716Z,8.37
2022-11-26T14:42:46.270Z,11.90
2022-11-26T14:45:18.349Z,9.70
2022-11-26T14:47:49.750Z,11.13
2022-11-26T14:50:19.925Z,9.73
2022-11-26T14:52:46.813Z,7.57
2022-11-26T14:55:24.002Z,11.13
2022-11-26T14:57:56.340Z,7.83
2022-11-26T15:00:29.361Z,9.70
2022-11-26T15:02:56.397Z,8.80
2022-11-26T15:05:25.506Z,9.43
2022-11-26T15:08:15.994Z,9.53
2022-11-26T15:10:59.502Z,10.83
2022-11-26T15:13:30.736Z,14.47
2022-11-26T15:15:59.922Z,13.70
2022-11-26T15:18:32.585Z,9.57
2022-11-26T15:21:01.537Z,11.13
2022-11-26T15:23:32.169Z,10.67
2022-11-26T15:26:00.214Z,7.27
2022-11-26T15:28:27.412Z,8.47
2022-11-26T15:30:53.995Z,7.67
2022-11-26T15:33:21.480Z,8.00
2022-11-26T15:35:56.584Z,14.50
2022-11-26T15:38:28.759Z,9.00
2022-11-26T15:40:58.357Z,6.93
2022-11-26T15:43:33.276Z,9.90
2022-11-26T15:46:11.424Z,9.63
2022-11-26T15:48:58.534Z,8.67
2022-11-26T15:51:35.539Z,9.07
2022-11-26T15:54:06.097Z,9.23
2022-11-26T15:56:37.248Z,8.30
2022-11-26T15:59:13.783Z,9.27
2022-11-26T16:01:44.602Z,7.40
2022-11-26T16:04:39.025Z,5.57
2022-11-26T16:07:14.336Z,6.53
2022-11-26T16:09:41.916Z,7.33
2022-11-26T16:12:32.777Z,8.63
2022-11-26T16:15:19.885Z,8.90
2022-11-26T16:17:47.877Z,8.00
2022-11-26T16:20:26.769Z,7.27
2022-11-26T16:22:56.909Z,7.97
2022-11-26T16:25:24.736Z,10.07
2022-11-26T16:28:09.595Z,12.03
2022-11-26T16:30:37.097Z,10.17
2022-11-26T16:33:05.067Z,8.70
2022-11-26T16:35:47.859Z,8.53
2022-11-26T16:38:22.842Z,7.63
2022-11-26T16:40:50.366Z,9.60
2022-11-26T16:43:17.530Z,8.47
2022-11-26T16:45:44.595Z,9.67
2022-11-26T16:48:24.614Z,9.17
2022-11-26T16:50:53.276Z,11.10
2022-11-26T16:53:19.828Z,9.30
2022-11-26T16:55:46.985Z,9.47
2022-11-26T16:58:29.456Z,9.43
2022-11-26T17:00:56.871Z,14.67
2022-11-26T17:03:25.105Z,10.50
2022-11-26T17:05:55.230Z,11.50
2022-11-26T17:08:22.598Z,9.50
2022-11-26T17:10:50.894Z,11.63
2022-11-26T17:13:17.919Z,8.57
2022-11-26T17:15:44.997Z,11.93
2022-11-26T17:18:24.555Z,10.33
2022-11-26T17:20:52.715Z,10.40
2022-11-26T17:23:19.381Z,9.37
2022-11-26T17:25:50.630Z,11.00
2022-11-26T17:28:17.377Z,10.53
2022-11-26T17:30:45.073Z,11.27
2022-11-26T17:33:11.994Z,12.60
2022-11-26T17:35:38.828Z,8.90
2022-11-26T17:38:14.656Z,11.00
2022-11-26T17:40:41.424Z,8.63
2022-11-26T17:43:07.992Z,9.93
2022-11-26T17:45:34.522Z,12.97
2022-11-26T17:48:01.144Z,11.43
2022-11-26T17:50:29.324Z,12.00
2022-11-26T17:52:56.091Z,10.37
2022-11-26T17:55:25.260Z,11.07
2022-11-26T17:57:52.015Z,12.90
2022-11-26T18:00:22.183Z,12.10
2022-11-26T18:02:49.224Z,9.33
2022-11-26T18:05:16.054Z,8.50
2022-11-26T18:07:42.654Z,9.60
2022-11-26T18:10:14.950Z,12.60
2022-11-26T18:12:42.562Z,12.40
2022-11-26T18:15:16.295Z,10.37
2022-11-26T18:17:48.253Z,11.23
2022-11-26T18:20:16.084Z,11.03
2022-11-26T18:22:42.680Z,8.30
2022-11-26T18:25:09.515Z,9.13
2022-11-26T18:27:36.307Z,11.23
2022-11-26T18:30:03.843Z,11.37
2022-11-26T18:32:30.438Z,9.47
2022-11-26T18:34:57.031Z,11.97
2022-11-26T18:37:23.594Z,9.27
2022-11-26T18:39:50.182Z,9.57
2022-11-26T18:45:03.633Z,7.30
2022-11-26T18:47:30.177Z,8.43
2022-11-26T18:49:56.704Z,7.70
2022-11-26T18:52:23.241Z,9.67
2022-11-26T18:54:49.792Z,8.43
2022-11-26T18:57:16.341Z,8.20
2022-11-26T18:59:43.183Z,8.57
2022-11-26T19:02:10.750Z,8.67
2022-11-26T19:04:38.357Z,9.30
2022-11-26T19:07:05.004Z,7.00
2022-11-26T19:09:31.595Z,8.50
2022-11-26T19:11:58.406Z,8.73
2022-11-26T19:14:25.266Z,8.27
2022-11-26T19:16:52.110Z,7.63
2022-11-26T19:19:19.351Z,9.40
2022-11-26T19:21:46.069Z,10.33
2022-11-26T19:24:12.917Z,11.40
2022-11-26T19:26:41.560Z,13.60
2022-11-26T19:29:09.402Z,10.87
2022-11-26T19:31:38.955Z,12.13
2022-11-26T19:34:10.027Z,12.77
2022-11-26T19:36:37.431Z,10.70
2022-11-26T19:39:05.548Z,20.47
2022-11-26T19:41:32.174Z,10.73
2022-11-26T19:44:00.676Z,10.60
2022-11-26T19:46:28.152Z,15.53
2022-11-26T19:48:55.827Z,10.10
2022-11-26T19:51:23.974Z,11.70
2022-11-26T19:53:52.293Z,11.33
2022-11-26T19:56:22.304Z,12.47
2022-11-26T19:58:49.579Z,18.90
2022-11-26T20:01:17.697Z,13.60
2022-11-26T20:03:44.670Z,10.93
2022-11-26T20:06:23.358Z,16.97
2022-11-26T20:08:50.418Z,10.97
2022-11-26T20:11:18.352Z,13.50
2022-11-26T20:13:46.663Z,18.30
2022-11-26T20:16:18.077Z,11.93
2022-11-26T20:18:45.514Z,22.73
2022-11-26T20:21:16.001Z,10.53
2022-11-26T20:23:43.161Z,10.93
2022-11-26T20:26:21.734Z,11.60
2022-11-26T20:28:49.490Z,11.70
2022-11-26T20:31:21.904Z,9.03
2022-11-26T20:33:49.857Z,9.20
2022-11-26T20:36:18.317Z,10.53
2022-11-26T20:38:44.897Z,6.57
2022-11-26T20:41:16.071Z,8.00
2022-11-26T20:43:43.004Z,7.57
2022-11-26T20:46:11.101Z,7.73
2022-11-26T20:48:39.479Z,6.70
2022-11-26T20:51:08.337Z,7.30
2022-11-26T20:53:36.464Z,7.97
2022-11-26T20:56:03.495Z,7.83
2022-11-26T20:58:30.908Z,6.00
2022-11-26T21:00:57.840Z,6.20
2022-11-26T21:03:26.475Z,6.83
2022-11-26T21:05:53.753Z,6.80
2022-11-26T21:08:22.166Z,4.10
2022-11-26T21:10:50.578Z,3.73
2022-11-26T21:13:19.109Z,3.83
2022-11-26T21:15:49.523Z,4.33
2022-11-26T21:18:16.334Z,4.23
2022-11-26T21:20:44.095Z,2.73
2022-11-26T21:23:12.456Z,4.17
2022-11-26T21:25:43.376Z,5.53
2022-11-26T21:28:11.443Z,4.83
2022-11-26T21:30:40.981Z,6.87
2022-11-26T21:33:09.601Z,5.97
2022-11-26T21:35:41.661Z,5.13
2022-11-26T21:38:08.341Z,6.10
2022-11-26T21:40:37.610Z,6.27
2022-11-26T21:43:04.180Z,6.57
2022-11-26T21:45:30.789Z,5.83
2022-11-26T21:47:57.396Z,5.83
2022-11-26T21:50:24.063Z,5.97
2022-11-26T21:52:50.705Z,5.57
2022-11-26T21:55:17.357Z,6.57
2022-11-26T21:57:43.909Z,5.53
2022-11-26T22:00:10.976Z,5.77
2022-11-26T22:02:37.825Z,6.60
2022-11-26T22:05:07.158Z,5.00
2022-11-26T22:07:34.820Z,5.97
2022-11-26T22:10:01.570Z,6.23
2022-11-26T22:12:28.216Z,5.73
2022-11-26T22:14:54.894Z,5.40
2022-11-26T22:17:21.474Z,8.13
2022-11-26T22:19:50.306Z,4.80
2022-11-26T22:22:16.899Z,4.60
2022-11-26T22:24:43.603Z,6.50
2022-11-26T22:27:10.741Z,7.33
2022-11-26T22:29:37.930Z,5.90
2022-11-26T22:32:04.876Z,5.40
2022-11-26T22:34:31.610Z,5.73
2022-11-26T22:36:58.357Z,7.20
2022-11-26T22:39:27.832Z,7.13
2022-11-26T22:41:54.397Z,8.73
2022-11-26T22:44:20.982Z,5.37
2022-11-26T22:46:47.809Z,6.60
2022-11-26T22:49:22.813Z,5.77
2022-11-26T22:51:49.543Z,7.33
2022-11-26T22:54:20.066Z,6.63
2022-11-26T22:56:49.811Z,4.97
2022-11-26T22:59:19.187Z,5.43
2022-11-26T23:01:45.861Z,6.13
2022-11-26T23:04:12.563Z,6.27
2022-11-26T23:06:44.728Z,6.13
2022-11-26T23:09:14.840Z,6.10
2022-11-26T23:11:43.049Z,7.00
2022-11-26T23:14:13.824Z,7.07
2022-11-26T23:16:45.176Z,7.17
2022-11-26T23:19:15.566Z,8.33
2022-11-26T23:21:44.626Z,7.90
2022-11-26T23:24:11.508Z,6.97
2022-11-26T23:26:40.277Z,8.20
2022-11-26T23:29:10.133Z,7.27
2022-11-26T23:31:42.689Z,6.27
2022-11-26T23:34:10.269Z,8.07
2022-11-26T23:36:37.786Z,7.87
2022-11-26T23:39:06.777Z,7.13
2022-11-26T23:41:34.004Z,7.60
2022-11-26T23:44:00.636Z,7.20
2022-11-26T23:46:31.029Z,7.17
2022-11-26T23:48:58.350Z,8.80
2022-11-26T23:51:29.884Z,8.37
2022-11-26T23:53:59.629Z,6.47
2022-11-26T23:56:31.751Z,7.43
2022-11-26T23:59:04.349Z,7.00
